createdAt,value
2018-05-06T00:00:38.728Z,57.13
2018-05-06T00:01:38.916Z,52.00
2018-05-06T00:02:39.102Z,49.80
2018-05-06T00:03:39.284Z,60.55
2018-05-06T00:04:39.472Z,59.81
2018-05-06T00:05:39.657Z,62.01
2018-05-06T00:06:39.843Z,55.91
2018-05-06T00:07:40.028Z,62.01
2018-05-06T00:08:40.214Z,53.71
2018-05-06T00:09:40.400Z,69.82
2018-05-06T00:10:40.587Z,53.22
2018-05-06T00:11:40.773Z,59.57
2018-05-06T00:12:40.960Z,62.50
2018-05-06T00:13:41.147Z,62.26
2018-05-06T00:14:41.333Z,61.77
2018-05-06T00:15:41.519Z,59.08
2018-05-06T00:16:41.704Z,56.40
2018-05-06T00:17:41.890Z,57.37
2018-05-06T00:18:42.075Z,58.84
2018-05-06T00:19:42.262Z,61.77
2018-05-06T00:20:42.448Z,65.92
2018-05-06T00:21:42.636Z,57.62
2018-05-06T00:22:42.819Z,57.13
2018-05-06T00:23:43.005Z,49.56
2018-05-06T00:24:43.193Z,56.64
2018-05-06T00:25:43.377Z,52.49
2018-05-06T00:26:43.562Z,56.15
2018-05-06T00:27:43.747Z,51.76
2018-05-06T00:28:43.944Z,51.51
2018-05-06T00:29:44.126Z,50.05
2018-05-06T00:30:44.308Z,47.85
2018-05-06T00:31:44.499Z,56.15
2018-05-06T00:32:44.681Z,48.58
2018-05-06T00:33:44.866Z,46.14
2018-05-06T00:34:45.053Z,49.80
2018-05-06T00:35:45.238Z,62.01
2018-05-06T00:36:45.425Z,55.91
2018-05-06T00:37:45.610Z,54.69
2018-05-06T00:38:45.797Z,56.64
2018-05-06T00:39:45.981Z,47.12
2018-05-06T00:40:46.168Z,59.08
2018-05-06T00:41:46.352Z,49.07
2018-05-06T00:42:46.537Z,53.47
2018-05-06T00:43:46.722Z,44.68
2018-05-06T00:44:46.909Z,51.03
2018-05-06T00:45:47.096Z,45.17
2018-05-06T00:46:47.284Z,47.61
2018-05-06T00:47:47.467Z,48.34
2018-05-06T00:48:47.653Z,47.61
2018-05-06T00:49:47.840Z,49.07
2018-05-06T00:50:48.024Z,45.90
2018-05-06T00:51:48.211Z,46.14
2018-05-06T00:52:48.396Z,45.90
2018-05-06T00:53:48.579Z,54.69
2018-05-06T00:54:48.765Z,44.92
2018-05-06T00:55:48.953Z,47.12
2018-05-06T00:56:49.135Z,45.90
2018-05-06T00:57:49.321Z,51.27
2018-05-06T00:58:49.507Z,46.88
2018-05-06T00:59:49.694Z,52.00
2018-05-06T01:00:49.878Z,52.49
2018-05-06T01:01:50.064Z,47.12
2018-05-06T01:02:50.252Z,47.12
2018-05-06T01:03:50.435Z,57.86
2018-05-06T01:04:50.620Z,50.54
2018-05-06T01:05:50.807Z,46.88
2018-05-06T01:06:50.993Z,49.80
2018-05-06T01:07:54.617Z,49.80
2018-05-06T01:08:51.423Z,54.69
2018-05-06T01:09:51.610Z,60.06
2018-05-06T01:10:51.796Z,52.00
2018-05-06T01:11:51.983Z,53.96
2018-05-06T01:12:52.169Z,50.29
2018-05-06T01:13:52.352Z,50.05
2018-05-06T01:14:52.540Z,52.49
2018-05-06T01:15:52.725Z,53.22
2018-05-06T01:16:52.911Z,51.76
2018-05-06T01:17:53.096Z,49.32
2018-05-06T01:18:53.281Z,47.36
2018-05-06T01:19:53.468Z,49.32
2018-05-06T01:20:53.655Z,54.93
2018-05-06T01:21:53.840Z,51.27
2018-05-06T01:22:54.025Z,49.32
2018-05-06T01:23:54.208Z,53.47
2018-05-06T01:24:54.394Z,53.71
2018-05-06T01:25:54.581Z,49.07
2018-05-06T01:26:54.767Z,49.80
2018-05-06T01:27:54.954Z,52.73
2018-05-06T01:28:55.139Z,52.25
2018-05-06T01:29:55.325Z,53.96
2018-05-06T01:30:55.511Z,53.22
2018-05-06T01:31:55.695Z,52.73
2018-05-06T01:32:55.879Z,53.96
2018-05-06T01:33:56.067Z,54.20
2018-05-06T01:34:56.250Z,49.56
2018-05-06T01:35:56.435Z,50.78
2018-05-06T01:36:56.623Z,62.26
2018-05-06T01:37:56.812Z,53.47
2018-05-06T01:38:56.992Z,53.47
2018-05-06T01:39:57.180Z,52.00
2018-05-06T01:40:57.364Z,53.71
2018-05-06T01:41:57.548Z,49.07
2018-05-06T01:42:57.733Z,51.51
2018-05-06T01:43:57.920Z,54.69
2018-05-06T01:44:58.104Z,49.32
2018-05-06T01:45:58.288Z,55.91
2018-05-06T01:46:58.473Z,52.00
2018-05-06T01:47:58.660Z,52.49
2018-05-06T01:48:58.845Z,46.88
2018-05-06T01:49:59.032Z,49.07
2018-05-06T01:50:59.218Z,47.12
2018-05-06T01:51:59.401Z,52.25
2018-05-06T01:52:59.590Z,47.61
2018-05-06T01:53:59.775Z,48.34
2018-05-06T01:54:59.961Z,55.91
2018-05-06T01:56:00.147Z,49.80
2018-05-06T01:57:00.334Z,46.14
2018-05-06T01:58:00.520Z,47.61
2018-05-06T01:59:00.705Z,52.98
2018-05-06T02:00:00.891Z,60.30
2018-05-06T02:01:01.080Z,57.62
2018-05-06T02:02:01.264Z,60.55
2018-05-06T02:03:01.453Z,51.27
2018-05-06T02:04:01.635Z,44.19
2018-05-06T02:05:01.823Z,48.34
2018-05-06T02:06:02.008Z,51.51
2018-05-06T02:07:02.193Z,52.25
2018-05-06T02:08:02.378Z,51.76
2018-05-06T02:09:02.563Z,52.00
2018-05-06T02:10:02.749Z,51.27
2018-05-06T02:11:02.941Z,48.10
2018-05-06T02:12:03.121Z,52.25
2018-05-06T02:13:03.306Z,51.03
2018-05-06T02:14:03.493Z,52.98
2018-05-06T02:15:03.676Z,53.47
2018-05-06T02:16:03.863Z,53.71
2018-05-06T02:17:04.049Z,52.00
2018-05-06T02:18:04.234Z,55.18
2018-05-06T02:19:04.419Z,52.25
2018-05-06T02:20:04.608Z,53.47
2018-05-06T02:21:04.794Z,58.35
2018-05-06T02:22:04.998Z,52.49
2018-05-06T02:23:05.162Z,54.93
2018-05-06T02:24:05.354Z,55.42
2018-05-06T02:25:05.538Z,60.06
2018-05-06T02:26:05.722Z,62.26
2018-05-06T02:27:05.910Z,52.49
2018-05-06T02:28:06.094Z,52.00
2018-05-06T02:29:06.278Z,56.40
2018-05-06T02:30:06.465Z,49.56
2018-05-06T02:31:06.651Z,64.94
2018-05-06T02:32:06.836Z,62.26
2018-05-06T02:33:07.032Z,54.44
2018-05-06T02:34:07.206Z,50.05
2018-05-06T02:35:07.400Z,55.18
2018-05-06T02:36:07.580Z,55.91
2018-05-06T02:37:07.767Z,46.14
2018-05-06T02:38:07.952Z,55.66
2018-05-06T02:39:08.139Z,53.71
2018-05-06T02:40:08.324Z,60.30
2018-05-06T02:41:08.512Z,57.13
2018-05-06T02:42:08.693Z,60.06
2018-05-06T02:43:08.882Z,53.71
2018-05-06T02:44:09.065Z,48.34
2018-05-06T02:45:09.250Z,60.55
2018-05-06T02:46:09.437Z,59.57
2018-05-06T02:47:09.619Z,61.77
2018-05-06T02:48:09.807Z,63.96
2018-05-06T02:49:09.993Z,63.72
2018-05-06T02:50:10.179Z,63.96
2018-05-06T02:51:10.365Z,64.94
2018-05-06T02:52:10.548Z,64.45
2018-05-06T02:53:10.733Z,67.63
2018-05-06T02:54:10.921Z,59.57
2018-05-06T02:55:11.105Z,56.64
2018-05-06T02:56:11.291Z,53.71
2018-05-06T02:57:11.475Z,56.40
2018-05-06T02:58:11.661Z,56.88
2018-05-06T02:59:11.845Z,55.91
2018-05-06T03:00:12.032Z,57.86
2018-05-06T03:01:12.216Z,61.77
2018-05-06T03:02:12.400Z,60.06
2018-05-06T03:03:12.585Z,59.81
2018-05-06T03:04:12.771Z,62.01
2018-05-06T03:05:12.953Z,60.06
2018-05-06T03:06:13.139Z,60.55
2018-05-06T03:07:13.325Z,59.08
2018-05-06T03:08:13.509Z,63.23
2018-05-06T03:09:13.693Z,58.84
2018-05-06T03:10:13.880Z,61.04
2018-05-06T03:11:14.063Z,59.81
2018-05-06T03:12:14.249Z,59.57
2018-05-06T03:13:14.435Z,62.26
2018-05-06T03:14:14.623Z,60.06
2018-05-06T03:15:14.805Z,60.55
2018-05-06T03:16:14.986Z,61.28
2018-05-06T03:17:15.172Z,58.84
2018-05-06T03:18:15.356Z,60.55
2018-05-06T03:19:15.540Z,60.30
2018-05-06T03:20:15.727Z,58.59
2018-05-06T03:21:15.911Z,61.04
2018-05-06T03:22:16.100Z,64.45
2018-05-06T03:23:16.281Z,60.30
2018-05-06T03:24:16.467Z,60.55
2018-05-06T03:25:16.654Z,54.69
2018-05-06T03:26:16.838Z,54.44
2018-05-06T03:27:17.027Z,58.59
2018-05-06T03:28:17.210Z,62.01
2018-05-06T03:29:17.399Z,61.04
2018-05-06T03:30:17.581Z,60.30
2018-05-06T03:31:17.764Z,60.06
2018-05-06T03:32:17.949Z,61.28
2018-05-06T03:33:18.135Z,60.79
2018-05-06T03:34:18.319Z,61.52
2018-05-06T03:35:18.504Z,60.30
2018-05-06T03:36:18.689Z,59.08
2018-05-06T03:37:18.878Z,55.66
2018-05-06T03:38:19.061Z,55.18
2018-05-06T03:39:19.245Z,56.40
2018-05-06T03:40:19.430Z,54.93
2018-05-06T03:41:19.614Z,64.94
2018-05-06T03:42:19.801Z,69.09
2018-05-06T03:43:19.985Z,62.74
2018-05-06T03:44:20.171Z,59.33
2018-05-06T03:45:20.357Z,62.01
2018-05-06T03:46:20.539Z,60.30
2018-05-06T03:47:20.724Z,63.23
2018-05-06T03:48:20.912Z,63.23
2018-05-06T03:49:21.094Z,62.74
2018-05-06T03:50:21.278Z,63.72
2018-05-06T03:51:21.466Z,63.96
2018-05-06T03:52:21.649Z,73.49
2018-05-06T03:53:21.834Z,65.92
2018-05-06T03:54:22.019Z,63.23
2018-05-06T03:55:22.205Z,64.70
2018-05-06T03:56:22.388Z,65.19
2018-05-06T03:57:22.573Z,63.23
2018-05-06T03:58:22.756Z,60.79
2018-05-06T03:59:22.941Z,68.36
2018-05-06T04:00:23.224Z,56.88
2018-05-06T04:01:23.309Z,55.18
2018-05-06T04:02:23.495Z,61.04
2018-05-06T04:03:23.679Z,59.08
2018-05-06T04:04:23.864Z,60.55
2018-05-06T04:05:24.051Z,62.99
2018-05-06T04:06:24.236Z,62.50
2018-05-06T04:07:24.424Z,63.48
2018-05-06T04:08:24.607Z,63.96
2018-05-06T04:09:24.791Z,62.74
2018-05-06T04:10:24.975Z,61.52
2018-05-06T04:11:25.161Z,60.06
2018-05-06T04:12:25.348Z,58.11
2018-05-06T04:13:25.534Z,56.64
2018-05-06T04:14:25.719Z,57.13
2018-05-06T04:15:25.908Z,53.71
2018-05-06T04:16:26.074Z,55.66
2018-05-06T04:17:26.251Z,60.55
2018-05-06T04:18:26.437Z,53.47
2018-05-06T04:19:26.627Z,51.76
2018-05-06T04:20:26.811Z,54.69
2018-05-06T04:21:26.997Z,61.04
2018-05-06T04:22:27.185Z,60.55
2018-05-06T04:23:27.370Z,55.42
2018-05-06T04:24:27.558Z,54.44
2018-05-06T04:25:27.745Z,52.49
2018-05-06T04:26:27.933Z,60.06
2018-05-06T04:27:28.120Z,55.42
2018-05-06T04:28:28.307Z,55.42
2018-05-06T04:29:28.496Z,53.22
2018-05-06T04:30:28.683Z,54.93
2018-05-06T04:31:28.872Z,56.15
2018-05-06T04:32:29.061Z,60.30
2018-05-06T04:33:29.249Z,76.66
2018-05-06T04:34:29.440Z,78.13
2018-05-06T04:35:29.627Z,52.00
2018-05-06T04:36:29.816Z,53.22
2018-05-06T04:37:30.005Z,62.01
2018-05-06T04:38:30.193Z,64.45
2018-05-06T04:39:30.384Z,54.20
2018-05-06T04:40:30.573Z,50.78
2018-05-06T04:41:30.762Z,53.71
2018-05-06T04:42:30.953Z,56.40
2018-05-06T04:43:31.147Z,54.93
2018-05-06T04:44:31.333Z,56.40
2018-05-06T04:45:31.522Z,56.64
2018-05-06T04:46:31.714Z,59.08
2018-05-06T04:47:31.905Z,52.25
2018-05-06T04:48:32.097Z,57.62
2018-05-06T04:49:32.288Z,57.86
2018-05-06T04:50:32.479Z,64.21
2018-05-06T04:51:32.670Z,62.26
2018-05-06T04:52:32.863Z,60.06
2018-05-06T04:53:33.052Z,65.92
2018-05-06T04:54:33.246Z,73.73
2018-05-06T04:55:33.440Z,62.26
2018-05-06T04:56:33.627Z,64.45
2018-05-06T04:57:33.819Z,61.28
2018-05-06T04:58:34.011Z,70.56
2018-05-06T04:59:34.201Z,67.87
2018-05-06T05:00:34.393Z,72.27
2018-05-06T05:01:34.585Z,69.58
2018-05-06T05:02:34.776Z,71.29
2018-05-06T05:03:34.967Z,63.72
2018-05-06T05:04:35.161Z,70.07
2018-05-06T05:05:35.366Z,65.43
2018-05-06T05:06:35.545Z,61.52
2018-05-06T05:07:35.737Z,64.45
2018-05-06T05:08:35.929Z,65.67
2018-05-06T05:09:36.179Z,66.41
2018-05-06T05:10:36.314Z,61.52
2018-05-06T05:11:36.508Z,62.01
2018-05-06T05:12:36.699Z,61.04
2018-05-06T05:13:36.894Z,61.04
2018-05-06T05:14:37.090Z,58.59
2018-05-06T05:15:37.284Z,60.06
2018-05-06T05:16:37.477Z,53.71
2018-05-06T05:17:37.664Z,56.64
2018-05-06T05:18:37.857Z,60.06
2018-05-06T05:19:38.051Z,55.66
2018-05-06T05:20:38.244Z,64.21
2018-05-06T05:21:38.438Z,69.82
2018-05-06T05:22:38.634Z,60.30
2018-05-06T05:23:38.830Z,60.06
2018-05-06T05:24:39.024Z,67.87
2018-05-06T05:25:39.218Z,59.81
2018-05-06T05:26:39.414Z,61.04
2018-05-06T05:27:39.611Z,59.81
2018-05-06T05:28:39.806Z,58.11
2018-05-06T05:29:40.000Z,58.59
2018-05-06T05:30:40.195Z,58.11
2018-05-06T05:31:40.393Z,57.86
2018-05-06T05:32:40.591Z,56.88
2018-05-06T05:33:40.786Z,58.84
2018-05-06T05:34:40.984Z,62.74
2018-05-06T05:35:41.177Z,61.77
2018-05-06T05:36:41.374Z,66.89
2018-05-06T05:37:41.571Z,66.89
2018-05-06T05:38:41.765Z,67.63
2018-05-06T05:39:41.967Z,67.63
2018-05-06T05:40:42.159Z,63.23
2018-05-06T05:41:42.356Z,58.84
2018-05-06T05:42:42.555Z,59.57
2018-05-06T05:43:42.751Z,58.59
2018-05-06T05:44:42.947Z,60.06
2018-05-06T05:45:43.147Z,63.72
2018-05-06T05:46:43.345Z,60.30
2018-05-06T05:47:43.555Z,62.74
2018-05-06T05:48:43.742Z,67.14
2018-05-06T05:49:43.941Z,58.59
2018-05-06T05:50:44.136Z,59.08
2018-05-06T05:51:44.339Z,58.59
2018-05-06T05:52:44.534Z,66.89
2018-05-06T05:53:44.739Z,59.33
2018-05-06T05:54:44.930Z,66.65
2018-05-06T05:55:45.131Z,62.74
2018-05-06T05:56:45.329Z,58.59
2018-05-06T05:57:45.526Z,66.65
2018-05-06T05:58:45.726Z,69.82
2018-05-06T05:59:45.926Z,65.67
2018-05-06T06:00:46.127Z,63.23
2018-05-06T06:01:46.324Z,57.86
2018-05-06T06:02:46.523Z,67.87
2018-05-06T06:03:46.723Z,73.00
2018-05-06T06:04:46.922Z,67.63
2018-05-06T06:05:47.123Z,70.80
2018-05-06T06:06:47.324Z,73.00
2018-05-06T06:07:47.524Z,69.09
2018-05-06T06:08:47.731Z,66.41
2018-05-06T06:09:47.977Z,64.45
2018-05-06T06:10:48.124Z,68.12
2018-05-06T06:11:48.324Z,67.87
2018-05-06T06:12:48.526Z,67.14
2018-05-06T06:13:48.727Z,61.77
2018-05-06T06:14:48.928Z,70.56
2018-05-06T06:15:49.131Z,65.67
2018-05-06T06:16:49.329Z,61.04
2018-05-06T06:17:49.534Z,59.33
2018-05-06T06:18:49.731Z,63.96
2018-05-06T06:19:49.933Z,68.85
2018-05-06T06:20:50.135Z,60.06
2018-05-06T06:21:50.334Z,52.73
2018-05-06T06:22:50.536Z,71.78
2018-05-06T06:23:50.737Z,71.53
2018-05-06T06:24:50.939Z,68.85
2018-05-06T06:25:51.148Z,70.80
2018-05-06T06:26:51.345Z,62.01
2018-05-06T06:27:51.550Z,63.96
2018-05-06T06:28:51.749Z,64.45
2018-05-06T06:29:51.952Z,66.16
2018-05-06T06:30:52.150Z,63.23
2018-05-06T06:31:52.351Z,75.44
2018-05-06T06:32:52.614Z,68.60
2018-05-06T06:33:52.757Z,70.07
2018-05-06T06:34:52.958Z,69.09
2018-05-06T06:35:53.158Z,68.36
2018-05-06T06:36:53.360Z,70.80
2018-05-06T06:37:53.563Z,72.75
2018-05-06T06:38:53.766Z,77.39
2018-05-06T06:39:53.967Z,65.43
2018-05-06T06:40:54.168Z,71.04
2018-05-06T06:41:54.377Z,69.34
2018-05-06T06:42:54.571Z,69.58
2018-05-06T06:43:54.772Z,67.38
2018-05-06T06:44:54.975Z,69.82
2018-05-06T06:45:55.174Z,73.97
2018-05-06T06:46:55.375Z,61.77
2018-05-06T06:47:55.579Z,71.04
2018-05-06T06:48:55.780Z,66.41
2018-05-06T06:49:55.983Z,67.14
2018-05-06T06:50:56.187Z,64.94
2018-05-06T06:51:56.384Z,65.19
2018-05-06T06:52:56.586Z,66.65
2018-05-06T06:53:56.784Z,63.96
2018-05-06T06:54:56.993Z,65.92
2018-05-06T06:55:57.193Z,65.19
2018-05-06T06:56:57.395Z,69.09
2018-05-06T06:57:57.595Z,73.97
2018-05-06T06:58:57.804Z,65.67
2018-05-06T06:59:57.996Z,69.58
2018-05-06T07:00:58.197Z,73.00
2018-05-06T07:01:58.399Z,72.75
2018-05-06T07:02:58.602Z,69.58
2018-05-06T07:03:58.802Z,66.65
2018-05-06T07:04:59.003Z,68.85
2018-05-06T07:05:59.376Z,70.07
2018-05-06T07:06:59.405Z,65.43
2018-05-06T07:07:59.610Z,71.78
2018-05-06T07:08:59.808Z,65.67
2018-05-06T07:10:00.010Z,68.12
2018-05-06T07:11:00.211Z,69.58
2018-05-06T07:12:00.418Z,60.06
2018-05-06T07:13:00.613Z,60.06
2018-05-06T07:14:00.815Z,58.35
2018-05-06T07:15:01.015Z,55.66
2018-05-06T07:16:01.217Z,62.74
2018-05-06T07:17:01.421Z,63.96
2018-05-06T07:18:01.620Z,56.64
2018-05-06T07:19:01.822Z,64.45
2018-05-06T07:20:02.024Z,67.14
2018-05-06T07:21:02.225Z,68.36
2018-05-06T07:22:02.428Z,72.51
2018-05-06T07:23:02.631Z,74.46
2018-05-06T07:24:02.832Z,67.63
2018-05-06T07:25:03.192Z,60.30
2018-05-06T07:26:03.267Z,52.00
2018-05-06T07:27:03.470Z,68.85
2018-05-06T07:28:03.673Z,53.47
2018-05-06T07:29:03.873Z,61.52
2018-05-06T07:30:04.076Z,58.59
2018-05-06T07:31:04.278Z,70.07
2018-05-06T07:32:04.481Z,73.73
2018-05-06T07:33:04.685Z,66.89
2018-05-06T07:34:04.886Z,72.02
2018-05-06T07:35:05.088Z,61.28
2018-05-06T07:36:05.291Z,55.42
2018-05-06T07:37:05.492Z,55.42
2018-05-06T07:38:05.698Z,67.14
2018-05-06T07:39:05.900Z,62.01
2018-05-06T07:40:06.098Z,62.26
2018-05-06T07:41:06.299Z,61.77
2018-05-06T07:42:06.500Z,68.36
2018-05-06T07:43:06.702Z,69.82
2018-05-06T07:44:06.904Z,67.38
2018-05-06T07:45:07.108Z,60.30
2018-05-06T07:46:07.311Z,55.42
2018-05-06T07:47:07.514Z,62.50
2018-05-06T07:48:07.717Z,62.26
2018-05-06T07:49:07.990Z,73.49
2018-05-06T07:50:08.119Z,63.96
2018-05-06T07:51:08.323Z,67.38
2018-05-06T07:52:08.524Z,64.45
2018-05-06T07:53:08.726Z,66.65
2018-05-06T07:54:08.926Z,74.22
2018-05-06T07:55:09.128Z,73.00
2018-05-06T07:56:09.328Z,73.49
2018-05-06T07:57:09.533Z,60.30
2018-05-06T07:58:09.732Z,55.66
2018-05-06T07:59:09.933Z,56.88
2018-05-06T08:00:10.133Z,53.47
2018-05-06T08:01:10.337Z,51.51
2018-05-06T08:02:10.539Z,55.91
2018-05-06T08:03:10.741Z,59.81
2018-05-06T08:04:10.943Z,60.06
2018-05-06T08:05:11.142Z,52.49
2018-05-06T08:06:11.344Z,53.71
2018-05-06T08:07:11.547Z,60.55
2018-05-06T08:08:11.750Z,53.22
2018-05-06T08:09:11.952Z,62.99
2018-05-06T08:10:12.153Z,52.98
2018-05-06T08:11:12.355Z,54.69
2018-05-06T08:12:12.561Z,57.13
2018-05-06T08:13:12.759Z,66.41
2018-05-06T08:14:12.964Z,54.93
2018-05-06T08:15:13.164Z,54.20
2018-05-06T08:16:13.448Z,61.52
2018-05-06T08:17:13.569Z,66.16
2018-05-06T08:18:13.773Z,70.31
2018-05-06T08:19:13.976Z,69.34
2018-05-06T08:20:14.177Z,55.18
2018-05-06T08:21:14.381Z,64.94
2018-05-06T08:22:14.608Z,56.40
2018-05-06T08:23:14.785Z,64.45
2018-05-06T08:24:14.987Z,63.96
2018-05-06T08:25:15.192Z,58.84
2018-05-06T08:26:15.392Z,68.85
2018-05-06T08:27:15.594Z,70.31
2018-05-06T08:28:15.797Z,68.12
2018-05-06T08:29:15.998Z,63.48
2018-05-06T08:30:16.200Z,55.66
2018-05-06T08:31:16.493Z,57.62
2018-05-06T08:32:16.605Z,67.87
2018-05-06T08:33:16.805Z,81.79
2018-05-06T08:34:17.011Z,74.71
2018-05-06T08:35:17.211Z,72.02
2018-05-06T08:36:17.411Z,67.63
2018-05-06T08:37:17.613Z,66.89
2018-05-06T08:38:17.813Z,62.99
2018-05-06T08:39:18.016Z,66.41
2018-05-06T08:40:18.216Z,67.87
2018-05-06T08:41:18.421Z,66.65
2018-05-06T08:42:18.615Z,63.48
2018-05-06T08:43:18.819Z,65.43
2018-05-06T08:44:19.018Z,72.75
2018-05-06T08:45:19.222Z,70.31
2018-05-06T08:46:19.421Z,71.78
2018-05-06T08:47:19.621Z,67.87
2018-05-06T08:48:19.820Z,67.87
2018-05-06T08:49:20.022Z,65.19
2018-05-06T08:50:20.223Z,70.31
2018-05-06T08:51:20.430Z,70.31
2018-05-06T08:52:20.625Z,67.63
2018-05-06T08:53:20.883Z,60.30
2018-05-06T08:54:21.027Z,56.88
2018-05-06T08:55:21.225Z,62.99
2018-05-06T08:56:21.425Z,64.21
2018-05-06T08:57:21.626Z,72.02
2018-05-06T08:58:21.829Z,73.00
2018-05-06T08:59:22.028Z,69.09
2018-05-06T09:00:22.229Z,67.14
2018-05-06T09:01:22.427Z,64.21
2018-05-06T09:02:22.629Z,65.43
2018-05-06T09:03:22.827Z,64.94
2018-05-06T09:04:23.028Z,58.59
2018-05-06T09:05:23.232Z,74.95
2018-05-06T09:06:23.433Z,67.38
2018-05-06T09:07:23.698Z,64.45
2018-05-06T09:08:23.833Z,59.33
2018-05-06T09:09:24.034Z,73.49
2018-05-06T09:10:24.232Z,83.25
2018-05-06T09:11:24.433Z,75.44
2018-05-06T09:12:24.631Z,67.38
2018-05-06T09:13:24.837Z,63.48
2018-05-06T09:14:25.034Z,77.15
2018-05-06T09:15:25.230Z,73.97
2018-05-06T09:16:25.428Z,61.04
2018-05-06T09:17:25.631Z,76.66
2018-05-06T09:18:25.828Z,69.09
2018-05-06T09:19:26.071Z,75.93
2018-05-06T09:20:26.213Z,84.47
2018-05-06T09:21:26.407Z,65.43
2018-05-06T09:22:26.605Z,70.07
2018-05-06T09:23:26.803Z,56.40
2018-05-06T09:24:27.001Z,60.30
2018-05-06T09:25:27.248Z,77.39
2018-05-06T09:26:27.396Z,68.12
2018-05-06T09:27:27.593Z,72.51
2018-05-06T09:28:27.792Z,70.07
2018-05-06T09:29:27.989Z,61.04
2018-05-06T09:30:28.189Z,68.12
2018-05-06T09:31:28.386Z,68.85
2018-05-06T09:32:28.584Z,76.66
2018-05-06T09:33:28.783Z,75.93
2018-05-06T09:34:28.978Z,82.03
2018-05-06T09:35:29.182Z,80.81
2018-05-06T09:36:29.377Z,67.38
2018-05-06T09:37:29.571Z,73.00
2018-05-06T09:38:29.769Z,67.87
2018-05-06T09:39:29.969Z,65.19
2018-05-06T09:40:30.162Z,66.65
2018-05-06T09:41:30.360Z,62.01
2018-05-06T09:42:30.557Z,71.04
2018-05-06T09:43:30.753Z,65.92
2018-05-06T09:44:30.947Z,56.64
2018-05-06T09:45:31.144Z,73.00
2018-05-06T09:46:31.413Z,70.80
2018-05-06T09:47:31.578Z,61.77
2018-05-06T09:48:31.733Z,65.43
2018-05-06T09:49:31.930Z,69.09
2018-05-06T09:50:32.130Z,65.43
2018-05-06T09:51:32.325Z,74.22
2018-05-06T09:52:32.520Z,75.68
2018-05-06T09:53:32.714Z,79.10
2018-05-06T09:54:32.909Z,80.81
2018-05-06T09:55:33.108Z,75.68
2018-05-06T09:56:33.304Z,74.95
2018-05-06T09:57:33.504Z,73.97
2018-05-06T09:58:33.699Z,79.59
2018-05-06T09:59:33.890Z,74.22
2018-05-06T10:00:34.085Z,65.67
2018-05-06T10:01:34.281Z,74.22
2018-05-06T10:02:34.474Z,72.51
2018-05-06T10:03:34.672Z,72.51
2018-05-06T10:04:34.867Z,89.11
2018-05-06T10:05:35.067Z,75.20
2018-05-06T10:06:35.259Z,82.52
2018-05-06T10:07:35.452Z,80.08
2018-05-06T10:08:35.647Z,76.42
2018-05-06T10:09:35.842Z,72.02
2018-05-06T10:10:36.036Z,70.56
2018-05-06T10:11:36.230Z,67.87
2018-05-06T10:12:36.423Z,74.46
2018-05-06T10:13:36.616Z,78.61
2018-05-06T10:14:36.815Z,81.30
2018-05-06T10:15:37.007Z,84.96
2018-05-06T10:16:37.202Z,88.87
2018-05-06T10:17:37.391Z,79.10
2018-05-06T10:18:37.585Z,69.58
2018-05-06T10:19:37.777Z,69.09
2018-05-06T10:20:37.971Z,73.97
2018-05-06T10:21:38.168Z,75.93
2018-05-06T10:22:38.359Z,75.68
2018-05-06T10:23:38.555Z,70.56
2018-05-06T10:24:38.744Z,74.22
2018-05-06T10:25:38.936Z,67.87
2018-05-06T10:26:39.129Z,68.12
2018-05-06T10:27:39.321Z,75.20
2018-05-06T10:28:39.515Z,79.83
2018-05-06T10:29:39.709Z,70.56
2018-05-06T10:30:39.903Z,77.15
2018-05-06T10:31:40.098Z,72.51
2018-05-06T10:32:40.291Z,65.92
2018-05-06T10:33:40.485Z,65.19
2018-05-06T10:34:40.680Z,69.82
2018-05-06T10:35:40.873Z,68.12
2018-05-06T10:36:41.068Z,73.00
2018-05-06T10:37:41.261Z,69.34
2018-05-06T10:38:41.455Z,71.04
2018-05-06T10:39:41.650Z,83.01
2018-05-06T10:40:41.843Z,73.97
2018-05-06T10:41:42.038Z,86.91
2018-05-06T10:42:42.228Z,79.10
2018-05-06T10:43:42.421Z,70.07
2018-05-06T10:44:42.613Z,69.09
2018-05-06T10:45:42.807Z,61.04
2018-05-06T10:46:42.999Z,61.52
2018-05-06T10:47:43.195Z,65.92
2018-05-06T10:48:43.388Z,79.35
2018-05-06T10:49:43.582Z,75.20
2018-05-06T10:50:43.774Z,74.95
2018-05-06T10:51:43.967Z,72.75
2018-05-06T10:52:44.162Z,73.24
2018-05-06T10:53:44.355Z,76.42
2018-05-06T10:54:44.550Z,78.37
2018-05-06T10:55:44.744Z,71.29
2018-05-06T10:56:44.941Z,54.44
2018-05-06T10:57:45.133Z,66.41
2018-05-06T10:58:45.326Z,67.63
2018-05-06T10:59:45.522Z,68.60
2018-05-06T11:00:45.719Z,80.57
2018-05-06T11:01:45.912Z,76.90
2018-05-06T11:02:46.105Z,70.80
2018-05-06T11:03:46.299Z,75.44
2018-05-06T11:04:46.493Z,82.76
2018-05-06T11:05:46.686Z,81.30
2018-05-06T11:06:46.881Z,78.61
2018-05-06T11:07:47.072Z,75.44
2018-05-06T11:08:47.266Z,74.71
2018-05-06T11:09:47.459Z,78.61
2018-05-06T11:10:47.654Z,77.64
2018-05-06T11:11:47.848Z,72.75
2018-05-06T11:12:48.041Z,76.90
2018-05-06T11:13:48.236Z,78.37
2018-05-06T11:14:48.430Z,82.52
2018-05-06T11:15:48.622Z,72.02
2018-05-06T11:16:48.816Z,73.49
2018-05-06T11:17:49.103Z,72.02
2018-05-06T11:18:49.203Z,84.47
2018-05-06T11:19:49.400Z,69.34
2018-05-06T11:20:49.589Z,76.17
2018-05-06T11:21:49.782Z,71.29
2018-05-06T11:22:49.976Z,69.58
2018-05-06T11:23:50.168Z,80.81
2018-05-06T11:24:50.365Z,83.98
2018-05-06T11:25:50.554Z,75.44
2018-05-06T11:26:50.749Z,73.00
2018-05-06T11:27:50.942Z,66.41
2018-05-06T11:28:51.136Z,75.93
2018-05-06T11:29:51.328Z,72.51
2018-05-06T11:30:51.521Z,75.93
2018-05-06T11:31:51.714Z,72.75
2018-05-06T11:32:51.906Z,69.58
2018-05-06T11:33:52.107Z,69.34
2018-05-06T11:34:52.292Z,71.04
2018-05-06T11:35:52.484Z,81.54
2018-05-06T11:36:52.678Z,72.51
2018-05-06T11:37:52.868Z,65.19
2018-05-06T11:38:53.064Z,80.08
2018-05-06T11:39:53.257Z,74.95
2018-05-06T11:40:53.525Z,70.07
2018-05-06T11:41:53.640Z,74.46
2018-05-06T11:42:53.833Z,75.20
2018-05-06T11:43:54.026Z,71.78
2018-05-06T11:44:54.219Z,70.07
2018-05-06T11:45:54.415Z,69.09
2018-05-06T11:46:54.603Z,77.88
2018-05-06T11:47:54.801Z,77.64
2018-05-06T11:48:54.989Z,76.17
2018-05-06T11:49:55.182Z,76.17
2018-05-06T11:50:55.375Z,70.07
2018-05-06T11:51:55.568Z,68.12
2018-05-06T11:52:55.757Z,61.77
2018-05-06T11:53:55.949Z,81.05
2018-05-06T11:54:56.143Z,74.71
2018-05-06T11:55:56.335Z,83.01
2018-05-06T11:56:56.529Z,78.37
2018-05-06T11:57:56.719Z,80.57
2018-05-06T11:58:56.912Z,62.50
2018-05-06T11:59:57.102Z,62.99
2018-05-06T12:00:57.294Z,61.04
2018-05-06T12:01:57.488Z,59.57
2018-05-06T12:02:57.680Z,81.79
2018-05-06T12:03:57.871Z,73.00
2018-05-06T12:04:58.062Z,74.46
2018-05-06T12:05:58.255Z,77.39
2018-05-06T12:06:58.448Z,77.64
2018-05-06T12:07:58.644Z,75.68
2018-05-06T12:08:58.832Z,69.58
2018-05-06T12:09:59.097Z,67.87
2018-05-06T12:10:59.218Z,70.56
2018-05-06T12:11:59.411Z,62.01
2018-05-06T12:12:59.603Z,68.60
2018-05-06T12:13:59.796Z,79.83
2018-05-06T12:14:59.987Z,89.11
2018-05-06T12:16:00.248Z,79.83
2018-05-06T12:17:00.371Z,72.27
2018-05-06T12:18:00.564Z,72.75
2018-05-06T12:19:00.755Z,75.68
2018-05-06T12:20:00.953Z,81.79
2018-05-06T12:21:01.141Z,75.68
2018-05-06T12:22:01.333Z,76.17
2018-05-06T12:23:01.524Z,73.49
2018-05-06T12:24:01.732Z,64.70
2018-05-06T12:25:01.914Z,69.82
2018-05-06T12:26:02.102Z,67.14
2018-05-06T12:27:02.293Z,74.71
2018-05-06T12:28:02.488Z,66.65
2018-05-06T12:29:02.678Z,82.76
2018-05-06T12:30:02.870Z,76.17
2018-05-06T12:31:03.065Z,67.14
2018-05-06T12:32:03.251Z,75.44
2018-05-06T12:33:03.446Z,88.62
2018-05-06T12:34:03.636Z,83.74
2018-05-06T12:35:03.829Z,76.90
2018-05-06T12:36:04.022Z,75.20
2018-05-06T12:37:04.214Z,78.61
2018-05-06T12:38:04.407Z,77.88
2018-05-06T12:39:04.600Z,78.37
2018-05-06T12:40:04.793Z,75.68
2018-05-06T12:41:04.990Z,77.39
2018-05-06T12:42:05.179Z,68.60
2018-05-06T12:43:05.370Z,58.59
2018-05-06T12:44:05.563Z,69.58
2018-05-06T12:45:05.753Z,69.34
2018-05-06T12:46:05.946Z,72.27
2018-05-06T12:47:06.141Z,75.68
2018-05-06T12:48:06.330Z,75.44
2018-05-06T12:49:06.524Z,79.59
2018-05-06T12:50:06.715Z,78.86
2018-05-06T12:51:06.908Z,83.74
2018-05-06T12:52:07.099Z,82.52
2018-05-06T12:53:07.290Z,81.05
2018-05-06T12:54:07.483Z,71.53
2018-05-06T12:55:07.675Z,75.93